This is the latest recevied weather packets stored in our database for station/object WX6HNX-6. If no packets are shown the sender has not sent any weather packets the latest 10 day(s).
| Time | Temp. | Humidity | Pressure | Rain* | Wind** | Luminosity | Snow |
|---|---|---|---|---|---|---|---|
| 1777691470 | 25.56° C | 42% | 1009.7 hPa | 0 mm | - | - | - |
| 1777691170 | 25.56° C | 42% | 1009.8 hPa | 0 mm | - | - | - |
| 1777690871 | 26.11° C | 41% | 1009.7 hPa | 0 mm | - | - | - |
| 1777690570 | 26.11° C | 40% | 1009.7 hPa | 0 mm | - | - | - |
| 1777690271 | 26.67° C | 39% | 1009.7 hPa | 0 mm | - | - | - |
| 1777689971 | 26.67° C | 38% | 1009.7 hPa | 0 mm | - | - | - |
| 1777689671 | 27.22° C | 36% | 1009.6 hPa | 0 mm | - | - | - |
| 1777689371 | 27.22° C | 35% | 1009.6 hPa | 0 mm | - | - | - |
| 1777689071 | 27.78° C | 34% | 1009.6 hPa | 0 mm | - | - | - |
| 1777688771 | 27.78° C | 34% | 1009.6 hPa | 0 mm | - | - | - |
| 1777688267 | 28.33° C | 33% | 1009.6 hPa | 0 mm | - | - | - |
| 1777687668 | 28.89° C | 32% | 1009.5 hPa | 0 mm | - | - | - |
| 1777674091 | 32.22° C | 24% | 1011 hPa | 0 mm | - | - | - |
| 1777673791 | 33.33° C | 24% | 1011.1 hPa | 0 mm | - | - | - |
| 1777673490 | 33.33° C | 23% | 1011.2 hPa | 0 mm | - | - | - |
| 1777672891 | 32.22° C | 23% | 1011.4 hPa | 0 mm | - | - | - |
| 1777672590 | 32.22° C | 25% | 1011.5 hPa | 0 mm | - | - | - |
| 1777672290 | 32.22° C | 26% | 1011.6 hPa | 0 mm | - | - | - |
| 1777671390 | 31.67° C | 29% | 1011.6 hPa | 0 mm | - | - | - |
| 1777671090 | 31.11° C | 30% | 1011.7 hPa | 0 mm | - | - | - |
| 1777670490 | 30.56° C | 33% | 1011.8 hPa | 0 mm | - | - | - |
| 1777670190 | 30.56° C | 32% | 1012 hPa | 0 mm | - | - | - |
| 1777669891 | 31.11° C | 32% | 1011.9 hPa | 0 mm | - | - | - |
| 1777669590 | 31.11° C | 33% | 1012 hPa | 0 mm | - | - | - |
| 1777669291 | 31.11° C | 30% | 1012 hPa | 0 mm | - | - | - |
* Rain latest hour (hover to see other rain measurements)
** Current wind speed in m/s (hover to see current wind gust speed)